Clark Colony, South Dakota
Current Conditions -  °F | °C
As of 9:53 AM on Wednesday 26 Nov 2014 (Local Time) from KATY Reporting Station
Overcast Overcast  
Wind Chill: -10°   Ceiling: 700
Heat Index:   Visibility: 10mi
Dew Point:   Wind: 18mph
Humidity: 80%   Direction: 350°N
Pressure: 30.22"   Gusts: NA
Location:  44.8923°N, 97.9193°W
Report Text: KATY 261553Z AUTO 35016KT 10SM OVC007 M13/M16 A3022 RMK AO2 SLP266 T11281156
Loading
Personal Weather Stations






























Interactive Weather Map New forecast layout! Learn more

10-Day Weather Forecast

Advertisements
Track Severe Weather on mobile